sensor_id;sensor_type;location;lat;lon;timestamp;P1;durP1;ratioP1;P2;durP2;ratioP2
1128;SDS011;553;51.038;7.216;2024-02-15T00:00:37;9.43;;;5.50;;
1128;SDS011;553;51.038;7.216;2024-02-15T00:03:04;11.90;;;5.80;;
1128;SDS011;553;51.038;7.216;2024-02-15T00:05:51;8.97;;;5.83;;
1128;SDS011;553;51.038;7.216;2024-02-15T00:08:19;9.20;;;5.77;;
1128;SDS011;553;51.038;7.216;2024-02-15T00:10:47;9.80;;;6.83;;
1128;SDS011;553;51.038;7.216;2024-02-15T00:13:14;11.43;;;5.83;;
1128;SDS011;553;51.038;7.216;2024-02-15T00:15:41;12.90;;;7.00;;
1128;SDS011;553;51.038;7.216;2024-02-15T00:18:08;10.97;;;6.20;;
1128;SDS011;553;51.038;7.216;2024-02-15T00:20:35;9.40;;;6.50;;
1128;SDS011;553;51.038;7.216;2024-02-15T00:23:02;8.73;;;6.30;;
1128;SDS011;553;51.038;7.216;2024-02-15T00:25:29;12.57;;;7.43;;
1128;SDS011;553;51.038;7.216;2024-02-15T00:27:57;10.53;;;6.97;;
1128;SDS011;553;51.038;7.216;2024-02-15T00:30:26;11.13;;;7.27;;
1128;SDS011;553;51.038;7.216;2024-02-15T00:32:53;12.70;;;7.43;;
1128;SDS011;553;51.038;7.216;2024-02-15T00:35:21;11.00;;;7.70;;
1128;SDS011;553;51.038;7.216;2024-02-15T00:37:48;11.37;;;7.53;;
1128;SDS011;553;51.038;7.216;2024-02-15T00:40:16;11.53;;;6.63;;
1128;SDS011;553;51.038;7.216;2024-02-15T00:42:43;12.13;;;6.50;;
1128;SDS011;553;51.038;7.216;2024-02-15T00:45:10;11.07;;;7.57;;
1128;SDS011;553;51.038;7.216;2024-02-15T00:47:38;10.33;;;7.30;;
1128;SDS011;553;51.038;7.216;2024-02-15T00:50:09;11.37;;;7.20;;
1128;SDS011;553;51.038;7.216;2024-02-15T00:52:36;9.63;;;7.30;;
1128;SDS011;553;51.038;7.216;2024-02-15T00:55:03;10.00;;;7.70;;
1128;SDS011;553;51.038;7.216;2024-02-15T00:57:30;13.90;;;7.97;;
1128;SDS011;553;51.038;7.216;2024-02-15T00:59:57;12.27;;;7.67;;
1128;SDS011;553;51.038;7.216;2024-02-15T01:02:25;12.30;;;8.13;;
1128;SDS011;553;51.038;7.216;2024-02-15T01:04:54;8.97;;;7.30;;
1128;SDS011;553;51.038;7.216;2024-02-15T01:07:25;13.20;;;8.10;;
1128;SDS011;553;51.038;7.216;2024-02-15T01:09:54;14.83;;;8.43;;
1128;SDS011;553;51.038;7.216;2024-02-15T01:12:21;11.57;;;8.03;;
1128;SDS011;553;51.038;7.216;2024-02-15T01:14:48;16.77;;;7.80;;
1128;SDS011;553;51.038;7.216;2024-02-15T01:17:15;11.37;;;7.73;;
1128;SDS011;553;51.038;7.216;2024-02-15T01:19:43;14.07;;;8.13;;
1128;SDS011;553;51.038;7.216;2024-02-15T01:22:10;14.00;;;7.80;;
1128;SDS011;553;51.038;7.216;2024-02-15T01:24:37;13.23;;;8.00;;
1128;SDS011;553;51.038;7.216;2024-02-15T01:27:04;14.00;;;8.50;;
1128;SDS011;553;51.038;7.216;2024-02-15T01:29:32;14.93;;;7.87;;
1128;SDS011;553;51.038;7.216;2024-02-15T01:31:59;16.50;;;7.30;;
1128;SDS011;553;51.038;7.216;2024-02-15T01:34:26;12.80;;;8.07;;
1128;SDS011;553;51.038;7.216;2024-02-15T01:36:54;13.47;;;8.50;;
1128;SDS011;553;51.038;7.216;2024-02-15T01:39:21;17.87;;;7.60;;
1128;SDS011;553;51.038;7.216;2024-02-15T01:41:48;12.10;;;7.87;;
1128;SDS011;553;51.038;7.216;2024-02-15T01:44:22;11.33;;;7.37;;
1128;SDS011;553;51.038;7.216;2024-02-15T01:46:50;12.40;;;7.80;;
1128;SDS011;553;51.038;7.216;2024-02-15T01:49:21;14.90;;;7.80;;
1128;SDS011;553;51.038;7.216;2024-02-15T01:51:52;14.67;;;7.87;;
1128;SDS011;553;51.038;7.216;2024-02-15T01:54:22;15.13;;;8.83;;
1128;SDS011;553;51.038;7.216;2024-02-15T01:56:50;11.10;;;8.10;;
1128;SDS011;553;51.038;7.216;2024-02-15T01:59:17;13.53;;;8.37;;
1128;SDS011;553;51.038;7.216;2024-02-15T02:01:45;16.03;;;9.40;;
1128;SDS011;553;51.038;7.216;2024-02-15T02:04:12;12.00;;;7.90;;
1128;SDS011;553;51.038;7.216;2024-02-15T02:06:40;14.30;;;8.40;;
1128;SDS011;553;51.038;7.216;2024-02-15T02:09:10;14.90;;;8.47;;
1128;SDS011;553;51.038;7.216;2024-02-15T02:11:41;13.20;;;8.80;;
1128;SDS011;553;51.038;7.216;2024-02-15T02:14:11;15.87;;;7.37;;
1128;SDS011;553;51.038;7.216;2024-02-15T02:16:38;14.80;;;7.93;;
1128;SDS011;553;51.038;7.216;2024-02-15T02:19:06;10.73;;;8.27;;
1128;SDS011;553;51.038;7.216;2024-02-15T02:21:36;15.47;;;7.37;;
1128;SDS011;553;51.038;7.216;2024-02-15T02:24:08;15.20;;;8.67;;
1128;SDS011;553;51.038;7.216;2024-02-15T02:26:47;11.97;;;8.23;;
1128;SDS011;553;51.038;7.216;2024-02-15T02:29:15;15.40;;;7.00;;
1128;SDS011;553;51.038;7.216;2024-02-15T02:31:42;14.93;;;7.17;;
1128;SDS011;553;51.038;7.216;2024-02-15T02:34:09;13.43;;;7.27;;
1128;SDS011;553;51.038;7.216;2024-02-15T02:36:37;9.77;;;7.30;;
1128;SDS011;553;51.038;7.216;2024-02-15T02:39:04;14.60;;;7.90;;
1128;SDS011;553;51.038;7.216;2024-02-15T02:41:31;10.70;;;7.17;;
1128;SDS011;553;51.038;7.216;2024-02-15T02:43:58;9.50;;;6.53;;
1128;SDS011;553;51.038;7.216;2024-02-15T02:46:25;13.53;;;7.20;;
1128;SDS011;553;51.038;7.216;2024-02-15T02:48:52;13.70;;;7.17;;
1128;SDS011;553;51.038;7.216;2024-02-15T02:51:19;8.50;;;6.80;;
1128;SDS011;553;51.038;7.216;2024-02-15T02:53:46;12.20;;;6.23;;
1128;SDS011;553;51.038;7.216;2024-02-15T02:56:13;8.07;;;6.63;;
1128;SDS011;553;51.038;7.216;2024-02-15T02:58:40;12.40;;;6.70;;
1128;SDS011;553;51.038;7.216;2024-02-15T03:01:10;10.27;;;6.93;;
1128;SDS011;553;51.038;7.216;2024-02-15T03:03:38;10.57;;;7.23;;
1128;SDS011;553;51.038;7.216;2024-02-15T03:06:06;12.33;;;7.30;;
1128;SDS011;553;51.038;7.216;2024-02-15T03:08:33;12.33;;;7.90;;
1128;SDS011;553;51.038;7.216;2024-02-15T03:11:01;12.30;;;6.23;;
1128;SDS011;553;51.038;7.216;2024-02-15T03:13:28;15.47;;;6.80;;
1128;SDS011;553;51.038;7.216;2024-02-15T03:15:55;11.67;;;6.60;;
1128;SDS011;553;51.038;7.216;2024-02-15T03:18:22;8.40;;;5.50;;
1128;SDS011;553;51.038;7.216;2024-02-15T03:20:49;9.93;;;5.80;;
1128;SDS011;553;51.038;7.216;2024-02-15T03:23:17;14.33;;;6.10;;
1128;SDS011;553;51.038;7.216;2024-02-15T03:25:44;10.80;;;6.70;;
1128;SDS011;553;51.038;7.216;2024-02-15T03:28:11;12.60;;;7.10;;
1128;SDS011;553;51.038;7.216;2024-02-15T03:30:38;9.70;;;6.67;;
1128;SDS011;553;51.038;7.216;2024-02-15T03:33:04;10.10;;;6.50;;
1128;SDS011;553;51.038;7.216;2024-02-15T03:35:33;13.23;;;7.03;;
1128;SDS011;553;51.038;7.216;2024-02-15T03:38:00;8.50;;;6.20;;
1128;SDS011;553;51.038;7.216;2024-02-15T03:40:27;8.00;;;6.63;;
1128;SDS011;553;51.038;7.216;2024-02-15T03:42:56;9.53;;;6.20;;
1128;SDS011;553;51.038;7.216;2024-02-15T03:45:23;12.63;;;7.50;;
1128;SDS011;553;51.038;7.216;2024-02-15T03:47:53;10.10;;;6.20;;
1128;SDS011;553;51.038;7.216;2024-02-15T03:50:22;9.43;;;6.93;;
1128;SDS011;553;51.038;7.216;2024-02-15T03:52:49;9.50;;;6.30;;
1128;SDS011;553;51.038;7.216;2024-02-15T03:55:17;9.30;;;6.00;;
1128;SDS011;553;51.038;7.216;2024-02-15T03:57:44;12.00;;;7.10;;
1128;SDS011;553;51.038;7.216;2024-02-15T04:00:13;11.90;;;7.20;;
1128;SDS011;553;51.038;7.216;2024-02-15T04:02:48;12.73;;;7.80;;
1128;SDS011;553;51.038;7.216;2024-02-15T04:05:16;8.50;;;6.90;;
1128;SDS011;553;51.038;7.216;2024-02-15T04:07:45;13.87;;;6.53;;
1128;SDS011;553;51.038;7.216;2024-02-15T04:10:12;15.47;;;6.30;;
1128;SDS011;553;51.038;7.216;2024-02-15T04:12:39;12.43;;;6.70;;
1128;SDS011;553;51.038;7.216;2024-02-15T04:15:09;8.27;;;6.50;;
1128;SDS011;553;51.038;7.216;2024-02-15T04:17:43;9.20;;;6.50;;
1128;SDS011;553;51.038;7.216;2024-02-15T04:20:11;9.80;;;6.00;;
1128;SDS011;553;51.038;7.216;2024-02-15T04:22:40;10.43;;;6.50;;
1128;SDS011;553;51.038;7.216;2024-02-15T04:25:09;11.00;;;6.40;;
1128;SDS011;553;51.038;7.216;2024-02-15T04:27:37;7.77;;;5.80;;
1128;SDS011;553;51.038;7.216;2024-02-15T04:30:05;9.83;;;5.90;;
1128;SDS011;553;51.038;7.216;2024-02-15T04:32:33;10.10;;;6.70;;
1128;SDS011;553;51.038;7.216;2024-02-15T04:35:02;9.37;;;5.23;;
1128;SDS011;553;51.038;7.216;2024-02-15T04:37:32;8.93;;;5.13;;
1128;SDS011;553;51.038;7.216;2024-02-15T04:40:01;6.77;;;5.47;;
1128;SDS011;553;51.038;7.216;2024-02-15T04:42:38;12.20;;;6.60;;
1128;SDS011;553;51.038;7.216;2024-02-15T04:45:08;7.30;;;5.10;;
1128;SDS011;553;51.038;7.216;2024-02-15T04:47:39;6.07;;;4.47;;
1128;SDS011;553;51.038;7.216;2024-02-15T04:50:12;9.10;;;6.07;;
1128;SDS011;553;51.038;7.216;2024-02-15T04:52:38;9.10;;;4.87;;
1128;SDS011;553;51.038;7.216;2024-02-15T04:55:05;7.90;;;4.50;;
1128;SDS011;553;51.038;7.216;2024-02-15T04:57:32;13.20;;;5.10;;
1128;SDS011;553;51.038;7.216;2024-02-15T05:00:01;6.80;;;5.20;;
1128;SDS011;553;51.038;7.216;2024-02-15T05:02:35;8.70;;;5.20;;
1128;SDS011;553;51.038;7.216;2024-02-15T05:05:06;6.90;;;4.63;;
1128;SDS011;553;51.038;7.216;2024-02-15T05:07:34;7.00;;;4.90;;
1128;SDS011;553;51.038;7.216;2024-02-15T05:10:04;7.93;;;5.00;;
1128;SDS011;553;51.038;7.216;2024-02-15T05:12:35;9.83;;;4.97;;
1128;SDS011;553;51.038;7.216;2024-02-15T05:15:04;8.57;;;5.27;;
1128;SDS011;553;51.038;7.216;2024-02-15T05:17:38;7.93;;;4.83;;
1128;SDS011;553;51.038;7.216;2024-02-15T05:20:08;12.77;;;5.27;;
1128;SDS011;553;51.038;7.216;2024-02-15T05:22:38;7.50;;;4.20;;
1128;SDS011;553;51.038;7.216;2024-02-15T05:25:06;9.77;;;4.57;;
1128;SDS011;553;51.038;7.216;2024-02-15T05:27:34;10.60;;;4.50;;
1128;SDS011;553;51.038;7.216;2024-02-15T05:30:03;8.60;;;4.20;;
1128;SDS011;553;51.038;7.216;2024-02-15T05:32:34;6.97;;;4.83;;
1128;SDS011;553;51.038;7.216;2024-02-15T05:35:08;11.23;;;5.30;;
1128;SDS011;553;51.038;7.216;2024-02-15T05:37:37;8.77;;;3.97;;
1128;SDS011;553;51.038;7.216;2024-02-15T05:40:05;6.20;;;3.43;;
1128;SDS011;553;51.038;7.216;2024-02-15T05:42:33;7.43;;;3.30;;
1128;SDS011;553;51.038;7.216;2024-02-15T05:45:14;7.00;;;4.20;;
1128;SDS011;553;51.038;7.216;2024-02-15T05:47:58;6.03;;;3.83;;
1128;SDS011;553;51.038;7.216;2024-02-15T05:50:25;5.30;;;3.73;;
1128;SDS011;553;51.038;7.216;2024-02-15T05:52:55;6.87;;;3.30;;
1128;SDS011;553;51.038;7.216;2024-02-15T05:55:24;6.23;;;3.20;;
1128;SDS011;553;51.038;7.216;2024-02-15T05:57:52;5.07;;;4.27;;
1128;SDS011;553;51.038;7.216;2024-02-15T06:00:19;3.90;;;3.03;;
1128;SDS011;553;51.038;7.216;2024-02-15T06:02:49;7.00;;;3.47;;
1128;SDS011;553;51.038;7.216;2024-02-15T06:05:17;6.07;;;2.80;;
1128;SDS011;553;51.038;7.216;2024-02-15T06:07:44;7.33;;;3.70;;
1128;SDS011;553;51.038;7.216;2024-02-15T06:10:13;7.57;;;2.50;;
1128;SDS011;553;51.038;7.216;2024-02-15T06:12:41;6.40;;;3.43;;
1128;SDS011;553;51.038;7.216;2024-02-15T06:15:07;4.30;;;3.07;;
1128;SDS011;553;51.038;7.216;2024-02-15T06:17:41;9.33;;;3.40;;
1128;SDS011;553;51.038;7.216;2024-02-15T06:20:13;5.57;;;3.00;;
1128;SDS011;553;51.038;7.216;2024-02-15T06:22:40;5.93;;;3.67;;
1128;SDS011;553;51.038;7.216;2024-02-15T06:25:08;9.30;;;3.33;;
1128;SDS011;553;51.038;7.216;2024-02-15T06:27:37;4.73;;;3.00;;
1128;SDS011;553;51.038;7.216;2024-02-15T06:30:07;5.80;;;3.10;;
1128;SDS011;553;51.038;7.216;2024-02-15T06:32:53;5.90;;;3.03;;
1128;SDS011;553;51.038;7.216;2024-02-15T06:35:39;5.70;;;3.40;;
1128;SDS011;553;51.038;7.216;2024-02-15T06:38:25;4.70;;;3.80;;
1128;SDS011;553;51.038;7.216;2024-02-15T06:41:10;7.73;;;3.13;;
1128;SDS011;553;51.038;7.216;2024-02-15T06:43:38;6.57;;;3.10;;
1128;SDS011;553;51.038;7.216;2024-02-15T06:46:06;7.17;;;3.93;;
1128;SDS011;553;51.038;7.216;2024-02-15T06:48:34;11.27;;;2.80;;
1128;SDS011;553;51.038;7.216;2024-02-15T06:51:02;6.47;;;3.70;;
1128;SDS011;553;51.038;7.216;2024-02-15T06:53:29;6.67;;;3.70;;
1128;SDS011;553;51.038;7.216;2024-02-15T06:55:56;9.63;;;3.90;;
1128;SDS011;553;51.038;7.216;2024-02-15T06:58:23;12.13;;;4.30;;
1128;SDS011;553;51.038;7.216;2024-02-15T07:00:50;16.00;;;3.80;;
1128;SDS011;553;51.038;7.216;2024-02-15T07:03:17;6.10;;;3.53;;
1128;SDS011;553;51.038;7.216;2024-02-15T07:05:44;7.17;;;3.70;;
1128;SDS011;553;51.038;7.216;2024-02-15T07:08:11;4.60;;;3.47;;
1128;SDS011;553;51.038;7.216;2024-02-15T07:10:41;5.10;;;3.20;;
1128;SDS011;553;51.038;7.216;2024-02-15T07:13:07;7.50;;;3.47;;
1128;SDS011;553;51.038;7.216;2024-02-15T07:15:34;7.53;;;3.70;;
1128;SDS011;553;51.038;7.216;2024-02-15T07:18:05;14.03;;;4.70;;
1128;SDS011;553;51.038;7.216;2024-02-15T07:20:35;8.50;;;4.17;;
1128;SDS011;553;51.038;7.216;2024-02-15T07:23:02;8.60;;;4.13;;
1128;SDS011;553;51.038;7.216;2024-02-15T07:25:31;10.67;;;4.13;;
1128;SDS011;553;51.038;7.216;2024-02-15T07:27:58;11.07;;;4.23;;
1128;SDS011;553;51.038;7.216;2024-02-15T07:30:25;8.17;;;4.00;;
1128;SDS011;553;51.038;7.216;2024-02-15T07:32:52;8.93;;;4.20;;
1128;SDS011;553;51.038;7.216;2024-02-15T07:35:19;11.73;;;5.63;;
1128;SDS011;553;51.038;7.216;2024-02-15T07:37:52;5.30;;;3.90;;
1128;SDS011;553;51.038;7.216;2024-02-15T07:40:21;6.20;;;4.30;;
1128;SDS011;553;51.038;7.216;2024-02-15T07:42:48;13.43;;;5.10;;
1128;SDS011;553;51.038;7.216;2024-02-15T07:45:15;8.03;;;4.97;;
1128;SDS011;553;51.038;7.216;2024-02-15T07:47:44;6.87;;;4.83;;
1128;SDS011;553;51.038;7.216;2024-02-15T07:50:16;9.87;;;4.80;;
1128;SDS011;553;51.038;7.216;2024-02-15T07:52:47;6.30;;;4.47;;
1128;SDS011;553;51.038;7.216;2024-02-15T07:55:15;8.07;;;5.17;;
1128;SDS011;553;51.038;7.216;2024-02-15T07:57:42;6.60;;;4.37;;
1128;SDS011;553;51.038;7.216;2024-02-15T08:00:08;10.33;;;4.60;;
1128;SDS011;553;51.038;7.216;2024-02-15T08:02:37;7.30;;;4.23;;
1128;SDS011;553;51.038;7.216;2024-02-15T08:05:07;9.83;;;4.23;;
1128;SDS011;553;51.038;7.216;2024-02-15T08:07:40;8.97;;;4.20;;
1128;SDS011;553;51.038;7.216;2024-02-15T08:10:08;8.40;;;4.93;;
1128;SDS011;553;51.038;7.216;2024-02-15T08:12:41;11.93;;;4.40;;
1128;SDS011;553;51.038;7.216;2024-02-15T08:15:12;11.43;;;4.47;;
1128;SDS011;553;51.038;7.216;2024-02-15T08:20:07;10.43;;;4.57;;
1128;SDS011;553;51.038;7.216;2024-02-15T08:22:36;8.00;;;3.93;;
1128;SDS011;553;51.038;7.216;2024-02-15T08:25:11;6.43;;;4.80;;
1128;SDS011;553;51.038;7.216;2024-02-15T08:27:42;9.70;;;4.67;;
1128;SDS011;553;51.038;7.216;2024-02-15T08:30:11;7.23;;;4.00;;
1128;SDS011;553;51.038;7.216;2024-02-15T08:32:39;9.43;;;4.73;;
1128;SDS011;553;51.038;7.216;2024-02-15T08:35:09;8.97;;;4.47;;
1128;SDS011;553;51.038;7.216;2024-02-15T08:37:36;7.13;;;3.77;;
1128;SDS011;553;51.038;7.216;2024-02-15T08:40:05;8.67;;;4.57;;
1128;SDS011;553;51.038;7.216;2024-02-15T08:42:40;7.90;;;3.80;;
1128;SDS011;553;51.038;7.216;2024-02-15T08:45:07;11.97;;;4.67;;
1128;SDS011;553;51.038;7.216;2024-02-15T08:47:39;8.03;;;4.40;;
1128;SDS011;553;51.038;7.216;2024-02-15T08:50:07;7.73;;;4.40;;
1128;SDS011;553;51.038;7.216;2024-02-15T08:52:38;6.77;;;3.73;;
1128;SDS011;553;51.038;7.216;2024-02-15T08:55:06;6.73;;;3.47;;
1128;SDS011;553;51.038;7.216;2024-02-15T08:57:36;8.07;;;4.20;;
1128;SDS011;553;51.038;7.216;2024-02-15T09:00:03;7.40;;;4.30;;
1128;SDS011;553;51.038;7.216;2024-02-15T09:02:40;8.53;;;4.00;;
1128;SDS011;553;51.038;7.216;2024-02-15T09:05:08;14.67;;;3.77;;
1128;SDS011;553;51.038;7.216;2024-02-15T09:07:35;7.23;;;3.80;;
1128;SDS011;553;51.038;7.216;2024-02-15T09:10:07;6.97;;;3.50;;
1128;SDS011;553;51.038;7.216;2024-02-15T09:12:36;5.57;;;4.07;;
1128;SDS011;553;51.038;7.216;2024-02-15T09:15:07;4.50;;;3.00;;
1128;SDS011;553;51.038;7.216;2024-02-15T09:17:34;5.70;;;3.63;;
1128;SDS011;553;51.038;7.216;2024-02-15T09:20:09;7.47;;;4.10;;
1128;SDS011;553;51.038;7.216;2024-02-15T09:22:47;5.20;;;3.30;;
1128;SDS011;553;51.038;7.216;2024-02-15T09:25:16;10.00;;;4.43;;
1128;SDS011;553;51.038;7.216;2024-02-15T09:27:43;9.40;;;4.77;;
1128;SDS011;553;51.038;7.216;2024-02-15T09:30:12;7.53;;;3.57;;
1128;SDS011;553;51.038;7.216;2024-02-15T09:32:39;10.70;;;3.70;;
1128;SDS011;553;51.038;7.216;2024-02-15T09:35:06;8.03;;;4.87;;
1128;SDS011;553;51.038;7.216;2024-02-15T09:37:35;5.97;;;3.23;;
1128;SDS011;553;51.038;7.216;2024-02-15T09:40:07;8.90;;;4.07;;
1128;SDS011;553;51.038;7.216;2024-02-15T09:42:37;5.87;;;4.00;;
1128;SDS011;553;51.038;7.216;2024-02-15T09:45:06;5.57;;;3.63;;
1128;SDS011;553;51.038;7.216;2024-02-15T09:47:37;4.90;;;3.20;;
1128;SDS011;553;51.038;7.216;2024-02-15T09:50:09;7.43;;;3.40;;
1128;SDS011;553;51.038;7.216;2024-02-15T09:52:42;6.30;;;3.40;;
1128;SDS011;553;51.038;7.216;2024-02-15T09:55:17;14.07;;;5.93;;
1128;SDS011;553;51.038;7.216;2024-02-15T09:57:45;6.67;;;3.50;;
1128;SDS011;553;51.038;7.216;2024-02-15T10:00:13;8.73;;;3.33;;
1128;SDS011;553;51.038;7.216;2024-02-15T10:02:42;8.53;;;3.20;;
1128;SDS011;553;51.038;7.216;2024-02-15T10:05:11;5.97;;;3.40;;
1128;SDS011;553;51.038;7.216;2024-02-15T10:07:39;6.60;;;2.73;;
1128;SDS011;553;51.038;7.216;2024-02-15T10:10:22;4.97;;;3.37;;
1128;SDS011;553;51.038;7.216;2024-02-15T10:12:52;9.23;;;3.33;;
1128;SDS011;553;51.038;7.216;2024-02-15T10:15:29;4.80;;;2.33;;
1128;SDS011;553;51.038;7.216;2024-02-15T10:18:00;6.40;;;3.00;;
1128;SDS011;553;51.038;7.216;2024-02-15T10:20:28;6.97;;;2.40;;
1128;SDS011;553;51.038;7.216;2024-02-15T10:25:28;13.23;;;3.20;;
1128;SDS011;553;51.038;7.216;2024-02-15T10:28:02;7.97;;;2.20;;
1128;SDS011;553;51.038;7.216;2024-02-15T10:30:39;11.67;;;2.53;;
1128;SDS011;553;51.038;7.216;2024-02-15T10:33:27;6.33;;;2.23;;
1128;SDS011;553;51.038;7.216;2024-02-15T10:36:05;8.20;;;1.97;;
1128;SDS011;553;51.038;7.216;2024-02-15T10:38:36;5.47;;;1.97;;
1128;SDS011;553;51.038;7.216;2024-02-15T10:41:04;3.30;;;1.57;;
1128;SDS011;553;51.038;7.216;2024-02-15T10:43:32;6.50;;;2.00;;
1128;SDS011;553;51.038;7.216;2024-02-15T10:46:01;5.70;;;2.87;;
1128;SDS011;553;51.038;7.216;2024-02-15T10:48:29;5.30;;;2.60;;
1128;SDS011;553;51.038;7.216;2024-02-15T10:50:56;4.80;;;2.00;;
1128;SDS011;553;51.038;7.216;2024-02-15T10:53:30;5.77;;;1.90;;
1128;SDS011;553;51.038;7.216;2024-02-15T10:56:03;5.10;;;2.30;;
1128;SDS011;553;51.038;7.216;2024-02-15T10:58:50;5.90;;;1.73;;
1128;SDS011;553;51.038;7.216;2024-02-15T11:01:27;3.70;;;2.20;;
1128;SDS011;553;51.038;7.216;2024-02-15T11:04:03;4.30;;;1.53;;
1128;SDS011;553;51.038;7.216;2024-02-15T11:06:33;4.07;;;2.00;;
1128;SDS011;553;51.038;7.216;2024-02-15T11:09:05;4.73;;;2.20;;
1128;SDS011;553;51.038;7.216;2024-02-15T11:11:34;8.27;;;2.57;;
1128;SDS011;553;51.038;7.216;2024-02-15T11:16:50;5.73;;;1.90;;
1128;SDS011;553;51.038;7.216;2024-02-15T11:22:04;4.27;;;1.80;;
1128;SDS011;553;51.038;7.216;2024-02-15T11:24:36;3.13;;;2.00;;
1128;SDS011;553;51.038;7.216;2024-02-15T11:27:11;2.70;;;1.27;;
1128;SDS011;553;51.038;7.216;2024-02-15T11:32:39;5.03;;;1.80;;
1128;SDS011;553;51.038;7.216;2024-02-15T11:35:12;6.07;;;2.53;;
1128;SDS011;553;51.038;7.216;2024-02-15T11:43:08;4.37;;;2.00;;
1128;SDS011;553;51.038;7.216;2024-02-15T11:45:36;5.03;;;1.70;;
1128;SDS011;553;51.038;7.216;2024-02-15T11:48:10;4.40;;;1.50;;
1128;SDS011;553;51.038;7.216;2024-02-15T11:50:39;5.10;;;1.80;;
1128;SDS011;553;51.038;7.216;2024-02-15T11:53:07;6.97;;;1.70;;
1128;SDS011;553;51.038;7.216;2024-02-15T11:55:39;3.30;;;2.00;;
1128;SDS011;553;51.038;7.216;2024-02-15T11:58:08;6.87;;;3.97;;
1128;SDS011;553;51.038;7.216;2024-02-15T12:00:37;10.70;;;4.30;;
1128;SDS011;553;51.038;7.216;2024-02-15T12:03:23;5.90;;;1.93;;
1128;SDS011;553;51.038;7.216;2024-02-15T12:06:29;3.40;;;1.40;;
1128;SDS011;553;51.038;7.216;2024-02-15T12:09:18;5.37;;;2.20;;
1128;SDS011;553;51.038;7.216;2024-02-15T12:12:05;4.17;;;1.70;;
1128;SDS011;553;51.038;7.216;2024-02-15T12:14:57;4.70;;;2.07;;
1128;SDS011;553;51.038;7.216;2024-02-15T12:17:47;5.73;;;1.83;;
1128;SDS011;553;51.038;7.216;2024-02-15T12:20:33;3.43;;;1.77;;
1128;SDS011;553;51.038;7.216;2024-02-15T12:23:01;4.23;;;1.90;;
1128;SDS011;553;51.038;7.216;2024-02-15T12:25:28;4.60;;;1.77;;
1128;SDS011;553;51.038;7.216;2024-02-15T12:27:55;7.67;;;1.93;;
1128;SDS011;553;51.038;7.216;2024-02-15T12:30:22;3.50;;;2.10;;
1128;SDS011;553;51.038;7.216;2024-02-15T12:32:52;4.33;;;1.80;;
1128;SDS011;553;51.038;7.216;2024-02-15T12:35:35;2.40;;;1.47;;
1128;SDS011;553;51.038;7.216;2024-02-15T12:38:02;3.93;;;1.80;;
1128;SDS011;553;51.038;7.216;2024-02-15T12:40:35;5.90;;;2.20;;
1128;SDS011;553;51.038;7.216;2024-02-15T12:43:04;4.10;;;1.60;;
1128;SDS011;553;51.038;7.216;2024-02-15T12:45:32;2.60;;;1.63;;
1128;SDS011;553;51.038;7.216;2024-02-15T12:48:03;3.87;;;1.70;;
1128;SDS011;553;51.038;7.216;2024-02-15T12:50:32;7.20;;;1.73;;
1128;SDS011;553;51.038;7.216;2024-02-15T12:53:03;5.67;;;2.20;;
1128;SDS011;553;51.038;7.216;2024-02-15T12:55:32;2.77;;;1.70;;
1128;SDS011;553;51.038;7.216;2024-02-15T12:58:02;3.43;;;1.60;;
1128;SDS011;553;51.038;7.216;2024-02-15T13:00:31;5.13;;;1.60;;
1128;SDS011;553;51.038;7.216;2024-02-15T13:03:01;2.33;;;1.27;;
1128;SDS011;553;51.038;7.216;2024-02-15T13:05:30;3.30;;;1.60;;
1128;SDS011;553;51.038;7.216;2024-02-15T13:07:58;3.70;;;1.80;;
1128;SDS011;553;51.038;7.216;2024-02-15T13:10:24;4.90;;;1.80;;
1128;SDS011;553;51.038;7.216;2024-02-15T13:12:52;6.77;;;1.77;;
1128;SDS011;553;51.038;7.216;2024-02-15T13:15:19;4.27;;;1.90;;
1128;SDS011;553;51.038;7.216;2024-02-15T13:17:48;2.10;;;1.13;;
1128;SDS011;553;51.038;7.216;2024-02-15T13:20:18;4.03;;;1.80;;
1128;SDS011;553;51.038;7.216;2024-02-15T13:23:02;4.20;;;1.90;;
1128;SDS011;553;51.038;7.216;2024-02-15T13:25:49;4.00;;;1.83;;
1128;SDS011;553;51.038;7.216;2024-02-15T13:28:16;2.63;;;1.70;;
1128;SDS011;553;51.038;7.216;2024-02-15T13:30:45;7.63;;;1.93;;
1128;SDS011;553;51.038;7.216;2024-02-15T13:33:12;3.10;;;1.70;;
1128;SDS011;553;51.038;7.216;2024-02-15T13:35:43;3.93;;;1.60;;
1128;SDS011;553;51.038;7.216;2024-02-15T13:38:11;5.13;;;1.63;;
1128;SDS011;553;51.038;7.216;2024-02-15T13:40:41;3.60;;;2.17;;
1128;SDS011;553;51.038;7.216;2024-02-15T13:43:08;3.13;;;1.73;;
1128;SDS011;553;51.038;7.216;2024-02-15T13:45:39;4.30;;;2.47;;
1128;SDS011;553;51.038;7.216;2024-02-15T13:48:07;3.07;;;1.87;;
1128;SDS011;553;51.038;7.216;2024-02-15T13:50:36;3.63;;;1.83;;
1128;SDS011;553;51.038;7.216;2024-02-15T13:53:05;2.93;;;1.50;;
1128;SDS011;553;51.038;7.216;2024-02-15T13:55:32;5.27;;;1.83;;
1128;SDS011;553;51.038;7.216;2024-02-15T13:58:00;6.40;;;2.20;;
1128;SDS011;553;51.038;7.216;2024-02-15T14:00:28;5.70;;;2.27;;
1128;SDS011;553;51.038;7.216;2024-02-15T14:03:01;3.40;;;1.50;;
1128;SDS011;553;51.038;7.216;2024-02-15T14:05:30;14.70;;;9.93;;
1128;SDS011;553;51.038;7.216;2024-02-15T14:07:59;6.77;;;2.00;;
1128;SDS011;553;51.038;7.216;2024-02-15T14:10:28;4.27;;;1.80;;
1128;SDS011;553;51.038;7.216;2024-02-15T14:12:56;3.93;;;2.10;;
1128;SDS011;553;51.038;7.216;2024-02-15T14:15:28;4.70;;;1.60;;
1128;SDS011;553;51.038;7.216;2024-02-15T14:17:56;5.77;;;2.17;;
1128;SDS011;553;51.038;7.216;2024-02-15T14:20:23;4.50;;;2.00;;
1128;SDS011;553;51.038;7.216;2024-02-15T14:22:51;5.20;;;1.67;;
1128;SDS011;553;51.038;7.216;2024-02-15T14:25:26;3.60;;;1.40;;
1128;SDS011;553;51.038;7.216;2024-02-15T14:27:53;8.60;;;2.10;;
1128;SDS011;553;51.038;7.216;2024-02-15T14:30:20;2.40;;;1.63;;
1128;SDS011;553;51.038;7.216;2024-02-15T14:33:06;6.50;;;1.90;;
1128;SDS011;553;51.038;7.216;2024-02-15T14:35:46;5.60;;;2.23;;
1128;SDS011;553;51.038;7.216;2024-02-15T14:38:13;3.83;;;2.03;;
1128;SDS011;553;51.038;7.216;2024-02-15T14:40:45;4.70;;;1.87;;
1128;SDS011;553;51.038;7.216;2024-02-15T14:43:17;5.83;;;1.80;;
1128;SDS011;553;51.038;7.216;2024-02-15T14:45:47;5.63;;;2.40;;
1128;SDS011;553;51.038;7.216;2024-02-15T14:48:14;4.10;;;1.70;;
1128;SDS011;553;51.038;7.216;2024-02-15T14:50:45;3.10;;;1.90;;
1128;SDS011;553;51.038;7.216;2024-02-15T14:53:12;3.23;;;2.10;;
1128;SDS011;553;51.038;7.216;2024-02-15T14:55:42;4.50;;;1.90;;
1128;SDS011;553;51.038;7.216;2024-02-15T14:58:13;4.70;;;1.50;;
1128;SDS011;553;51.038;7.216;2024-02-15T15:00:42;2.53;;;1.37;;
1128;SDS011;553;51.038;7.216;2024-02-15T15:03:11;3.73;;;1.90;;
1128;SDS011;553;51.038;7.216;2024-02-15T15:05:40;3.90;;;1.67;;
1128;SDS011;553;51.038;7.216;2024-02-15T15:08:25;2.30;;;1.20;;
1128;SDS011;553;51.038;7.216;2024-02-15T15:11:12;3.83;;;1.17;;
1128;SDS011;553;51.038;7.216;2024-02-15T15:13:57;3.10;;;1.37;;
1128;SDS011;553;51.038;7.216;2024-02-15T15:16:24;3.40;;;1.43;;
1128;SDS011;553;51.038;7.216;2024-02-15T15:18:52;7.90;;;2.10;;
1128;SDS011;553;51.038;7.216;2024-02-15T15:21:19;2.67;;;1.50;;
1128;SDS011;553;51.038;7.216;2024-02-15T15:23:50;4.43;;;1.63;;
1128;SDS011;553;51.038;7.216;2024-02-15T15:26:18;2.87;;;1.50;;
1128;SDS011;553;51.038;7.216;2024-02-15T15:28:46;3.53;;;1.67;;
1128;SDS011;553;51.038;7.216;2024-02-15T15:31:14;7.20;;;1.40;;
1128;SDS011;553;51.038;7.216;2024-02-15T15:33:46;4.50;;;1.33;;
1128;SDS011;553;51.038;7.216;2024-02-15T15:36:15;4.03;;;1.70;;
1128;SDS011;553;51.038;7.216;2024-02-15T15:38:44;4.43;;;1.20;;
1128;SDS011;553;51.038;7.216;2024-02-15T15:41:11;3.27;;;1.60;;
1128;SDS011;553;51.038;7.216;2024-02-15T15:43:38;4.13;;;1.73;;
1128;SDS011;553;51.038;7.216;2024-02-15T15:46:05;2.77;;;1.63;;
1128;SDS011;553;51.038;7.216;2024-02-15T15:48:32;3.60;;;1.57;;
1128;SDS011;553;51.038;7.216;2024-02-15T15:51:00;3.13;;;1.37;;
1128;SDS011;553;51.038;7.216;2024-02-15T15:53:32;4.70;;;1.90;;
1128;SDS011;553;51.038;7.216;2024-02-15T15:56:00;2.77;;;1.67;;
1128;SDS011;553;51.038;7.216;2024-02-15T15:58:27;4.37;;;1.80;;
1128;SDS011;553;51.038;7.216;2024-02-15T16:00:54;5.17;;;2.70;;